createdAt,value
2022-10-15T00:00:15.279Z,97731.53
2022-10-15T00:02:41.645Z,97743.28
2022-10-15T00:05:08.467Z,97739.38
2022-10-15T00:07:35.020Z,97737.09
2022-10-15T00:10:01.545Z,97732.88
2022-10-15T00:12:27.970Z,97725.59
2022-10-15T00:14:54.472Z,97729.78
2022-10-15T00:17:21.074Z,97730.19
2022-10-15T00:19:47.866Z,97733.06
2022-10-15T00:22:14.341Z,97736.00
2022-10-15T00:24:40.813Z,97732.06
2022-10-15T00:27:07.239Z,97735.63
2022-10-15T00:29:33.624Z,97731.84
2022-10-15T00:32:00.255Z,97725.66
2022-10-15T00:34:26.634Z,97724.47
2022-10-15T00:36:52.971Z,97730.84
2022-10-15T00:39:19.388Z,97729.84
2022-10-15T00:41:46.319Z,97730.00
2022-10-15T00:44:21.800Z,97727.56
2022-10-15T00:46:51.985Z,97725.94
2022-10-15T00:49:25.806Z,97720.97
2022-10-15T00:51:59.345Z,97730.31
2022-10-15T00:54:28.498Z,97720.81
2022-10-15T00:56:55.656Z,97718.16
2022-10-15T00:59:26.216Z,97711.34
2022-10-15T01:01:54.366Z,97724.97
2022-10-15T01:04:23.042Z,97728.88
2022-10-15T01:06:49.444Z,97713.66
2022-10-15T01:09:16.037Z,97715.31
2022-10-15T01:11:47.463Z,97713.66
2022-10-15T01:14:29.425Z,97717.38
2022-10-15T01:17:03.624Z,97722.72
2022-10-15T01:19:57.599Z,97705.38
2022-10-15T01:22:41.757Z,97707.88
2022-10-15T01:25:32.739Z,97701.66
2022-10-15T01:28:37.317Z,97702.00
2022-10-15T01:31:12.113Z,97703.16
2022-10-15T01:34:08.377Z,97706.53
2022-10-15T01:36:40.671Z,97691.09
2022-10-15T01:39:13.091Z,97690.06
2022-10-15T01:41:41.427Z,97686.75
2022-10-15T01:44:18.459Z,97687.38
2022-10-15T01:46:52.377Z,97691.97
2022-10-15T01:49:22.145Z,97698.00
2022-10-15T01:51:50.930Z,97691.41
2022-10-15T01:54:20.319Z,97697.38
2022-10-15T01:56:49.932Z,97697.38
2022-10-15T01:59:23.801Z,97696.38
2022-10-15T02:01:50.481Z,97685.22
2022-10-15T02:04:25.826Z,97680.88
2022-10-15T02:07:06.860Z,97671.25
2022-10-15T02:10:00.906Z,97677.09
2022-10-15T02:12:48.114Z,97677.34
2022-10-15T02:15:30.543Z,97669.69
2022-10-15T02:18:12.073Z,97664.44
2022-10-15T02:20:51.434Z,97679.38
2022-10-15T02:23:22.200Z,97686.41
2022-10-15T02:25:52.467Z,97695.31
2022-10-15T02:28:20.121Z,97693.66
2022-10-15T02:30:51.001Z,97690.97
2022-10-15T02:33:18.931Z,97696.72
2022-10-15T02:35:48.019Z,97693.59
2022-10-15T02:38:19.886Z,97686.84
2022-10-15T02:40:47.402Z,97684.72
2022-10-15T02:43:15.807Z,97687.09
2022-10-15T02:45:42.305Z,97683.06
2022-10-15T02:48:08.758Z,97686.00
2022-10-15T02:50:35.221Z,97683.19
2022-10-15T02:53:01.823Z,97679.75
2022-10-15T02:55:28.207Z,97674.22
2022-10-15T02:57:54.647Z,97664.00
2022-10-15T03:00:21.095Z,97679.25
2022-10-15T03:02:47.557Z,97667.69
2022-10-15T03:05:14.640Z,97664.19
2022-10-15T03:07:41.285Z,97667.25
2022-10-15T03:10:08.009Z,97665.41
2022-10-15T03:12:34.783Z,97677.72
2022-10-15T03:15:01.194Z,97681.88
2022-10-15T03:17:27.597Z,97687.84
2022-10-15T03:19:53.979Z,97687.03
2022-10-15T03:22:20.325Z,97680.00
2022-10-15T03:24:46.977Z,97688.44
2022-10-15T03:27:13.493Z,97685.38
2022-10-15T03:29:39.828Z,97686.19
2022-10-15T03:32:06.346Z,97692.38
2022-10-15T03:34:32.788Z,97697.72
2022-10-15T03:36:59.154Z,97696.72
2022-10-15T03:39:25.532Z,97695.06
2022-10-15T03:41:54.706Z,97690.53
2022-10-15T03:44:21.073Z,97699.03
2022-10-15T03:46:47.554Z,97693.88
2022-10-15T03:49:13.992Z,97685.63
2022-10-15T03:51:40.402Z,97699.38
2022-10-15T03:54:06.776Z,97694.03
2022-10-15T03:56:33.158Z,97707.06
2022-10-15T03:58:59.565Z,97695.50
2022-10-15T04:01:25.989Z,97702.97
2022-10-15T04:03:53.320Z,97703.41
2022-10-15T04:06:20.449Z,97703.22
2022-10-15T04:08:47.050Z,97697.47
2022-10-15T04:11:13.458Z,97695.16
2022-10-15T04:13:39.836Z,97696.19
2022-10-15T04:16:06.597Z,97698.75
2022-10-15T04:18:33.367Z,97695.72
2022-10-15T04:21:00.654Z,97702.84
2022-10-15T04:23:27.041Z,97702.09
2022-10-15T04:25:53.579Z,97698.50
2022-10-15T04:28:20.016Z,97704.19
2022-10-15T04:30:46.519Z,97713.16
2022-10-15T04:33:12.876Z,97710.47
2022-10-15T04:35:39.349Z,97723.31
2022-10-15T04:38:05.760Z,97724.19
2022-10-15T04:40:32.112Z,97709.97
2022-10-15T04:42:58.579Z,97719.28
2022-10-15T04:45:25.113Z,97713.06
2022-10-15T04:47:51.676Z,97713.94
2022-10-15T04:50:18.113Z,97712.78
2022-10-15T04:52:44.581Z,97713.25
2022-10-15T04:55:11.012Z,97725.59
2022-10-15T04:57:37.486Z,97731.22
2022-10-15T05:00:04.647Z,97728.59
2022-10-15T05:02:32.931Z,97727.22
2022-10-15T05:04:59.427Z,97738.34
2022-10-15T05:07:26.397Z,97735.03
2022-10-15T05:09:53.219Z,97734.41
2022-10-15T05:12:20.394Z,97732.94
2022-10-15T05:14:46.778Z,97722.88
2022-10-15T05:17:13.151Z,97721.84
2022-10-15T05:19:39.503Z,97719.78
2022-10-15T05:22:05.838Z,97727.16
2022-10-15T05:24:32.351Z,97734.59
2022-10-15T05:26:59.866Z,97738.56
2022-10-15T05:29:28.204Z,97734.84
2022-10-15T05:31:54.608Z,97737.59
2022-10-15T05:34:20.987Z,97742.13
2022-10-15T05:36:47.501Z,97728.97
2022-10-15T05:39:14.652Z,97725.25
2022-10-15T05:41:41.044Z,97732.28
2022-10-15T05:44:07.462Z,97744.78
2022-10-15T05:46:33.955Z,97750.94
2022-10-15T05:49:00.412Z,97763.97
2022-10-15T05:51:28.382Z,97759.22
2022-10-15T05:53:56.088Z,97755.16
2022-10-15T05:56:22.924Z,97763.03
2022-10-15T05:58:50.059Z,97761.66
2022-10-15T06:01:17.108Z,97765.53
2022-10-15T06:03:44.077Z,97766.56
2022-10-15T06:06:28.677Z,97770.97
2022-10-15T06:08:55.571Z,97774.09
2022-10-15T06:11:22.705Z,97791.91
2022-10-15T06:13:49.153Z,97792.44
2022-10-15T06:16:21.129Z,97792.38
2022-10-15T06:18:53.058Z,97786.66
2022-10-15T06:21:19.435Z,97783.75
2022-10-15T06:23:45.825Z,97794.88
2022-10-15T06:26:12.865Z,97790.88
2022-10-15T06:28:39.839Z,97793.53
2022-10-15T06:31:07.051Z,97787.25
2022-10-15T06:33:34.939Z,97790.38
2022-10-15T06:36:06.552Z,97803.09
2022-10-15T06:38:33.338Z,97798.03
2022-10-15T06:41:00.193Z,97811.28
2022-10-15T06:43:28.785Z,97804.06
2022-10-15T06:45:59.261Z,97802.69
2022-10-15T06:48:25.865Z,97809.34
2022-10-15T06:50:52.333Z,97823.31
2022-10-15T06:53:18.729Z,97829.53
2022-10-15T06:55:45.231Z,97819.91
2022-10-15T06:58:11.639Z,97830.16
2022-10-15T07:00:38.017Z,97840.09
2022-10-15T07:03:05.855Z,97850.38
2022-10-15T07:05:33.366Z,97840.66
2022-10-15T07:08:00.195Z,97841.88
2022-10-15T07:10:28.461Z,97846.72
2022-10-15T07:12:55.002Z,97852.59
2022-10-15T07:15:22.006Z,97848.81
2022-10-15T07:17:49.059Z,97856.81
2022-10-15T07:20:20.138Z,97864.66
2022-10-15T07:22:49.800Z,97862.84
2022-10-15T07:25:16.424Z,97869.56
2022-10-15T07:27:42.907Z,97861.06
2022-10-15T07:30:10.014Z,97841.63
2022-10-15T07:32:36.628Z,97846.91
2022-10-15T07:35:03.203Z,97859.59
2022-10-15T07:37:29.762Z,97855.34
2022-10-15T07:39:56.298Z,97854.56
2022-10-15T07:42:22.738Z,97868.84
2022-10-15T07:44:49.137Z,97868.50
2022-10-15T07:47:15.580Z,97870.22
2022-10-15T07:49:41.990Z,97873.56
2022-10-15T07:52:08.656Z,97871.97
2022-10-15T07:54:35.870Z,97871.59
2022-10-15T07:57:02.482Z,97871.63
2022-10-15T07:59:28.903Z,97865.00
2022-10-15T08:01:55.337Z,97875.31
2022-10-15T08:04:21.845Z,97868.13
2022-10-15T08:06:49.617Z,97872.47
2022-10-15T08:09:16.961Z,97869.81
2022-10-15T08:11:43.659Z,97865.72
2022-10-15T08:14:10.092Z,97877.03
2022-10-15T08:16:36.605Z,97883.06
2022-10-15T08:19:03.111Z,97885.75
2022-10-15T08:21:29.943Z,97885.81
2022-10-15T08:23:56.340Z,97882.53
2022-10-15T08:26:23.032Z,97881.09
2022-10-15T08:28:51.001Z,97877.34
2022-10-15T08:31:19.164Z,97886.69
2022-10-15T08:33:46.378Z,97887.56
2022-10-15T08:36:12.915Z,97887.56
2022-10-15T08:38:39.369Z,97883.44
2022-10-15T08:41:19.990Z,97881.00
2022-10-15T08:43:47.339Z,97886.75
2022-10-15T08:46:25.324Z,97881.16
2022-10-15T08:48:55.468Z,97882.84
2022-10-15T08:51:26.987Z,97887.28
2022-10-15T08:53:59.617Z,97892.50
2022-10-15T08:56:37.036Z,97888.28
2022-10-15T08:59:22.248Z,97906.09
2022-10-15T09:02:03.507Z,97903.59
2022-10-15T09:04:34.184Z,97907.38
2022-10-15T09:07:13.644Z,97904.34
2022-10-15T09:09:48.141Z,97909.50
2022-10-15T09:12:33.593Z,97908.31
2022-10-15T09:15:00.872Z,97912.06
2022-10-15T09:17:31.911Z,97913.78
2022-10-15T09:20:02.825Z,97913.19
2022-10-15T09:22:31.865Z,97912.81
2022-10-15T09:24:58.499Z,97910.84
2022-10-15T09:27:34.675Z,97905.81
2022-10-15T09:30:23.242Z,97901.75
2022-10-15T09:33:05.924Z,97903.94
2022-10-15T09:35:41.207Z,97903.16
2022-10-15T09:38:14.099Z,97906.66
2022-10-15T09:41:17.355Z,97898.19
2022-10-15T09:43:50.722Z,97901.53
2022-10-15T09:46:17.390Z,97900.94
2022-10-15T09:48:54.537Z,97901.72
2022-10-15T09:51:35.520Z,97892.69
2022-10-15T09:54:18.677Z,97901.50
2022-10-15T09:56:55.611Z,97902.06
2022-10-15T09:59:23.388Z,97890.66
2022-10-15T10:02:02.570Z,97889.84
2022-10-15T10:04:34.454Z,97892.03
2022-10-15T10:07:04.529Z,97895.31
2022-10-15T10:09:38.757Z,97901.66
2022-10-15T10:12:07.804Z,97903.41
2022-10-15T10:14:40.993Z,97898.91
2022-10-15T10:17:16.344Z,97906.75
2022-10-15T10:19:43.991Z,97904.59
2022-10-15T10:22:19.500Z,97901.50
2022-10-15T10:24:47.389Z,97907.44
2022-10-15T10:27:23.514Z,97900.53
2022-10-15T10:29:55.541Z,97895.84
2022-10-15T10:32:30.439Z,97904.91
2022-10-15T10:34:58.277Z,97902.38
2022-10-15T10:37:26.075Z,97891.59
2022-10-15T10:39:58.757Z,97899.84
2022-10-15T10:42:33.979Z,97900.63
2022-10-15T10:45:36.008Z,97908.25
2022-10-15T10:48:19.571Z,97908.91
2022-10-15T10:50:46.045Z,97898.03
2022-10-15T10:53:24.143Z,97896.25
2022-10-15T10:55:52.450Z,97899.56
2022-10-15T10:58:24.909Z,97896.69
2022-10-15T11:00:55.431Z,97899.22
2022-10-15T11:03:34.095Z,97895.66
2022-10-15T11:06:20.687Z,97889.84
2022-10-15T11:09:08.903Z,97889.88
2022-10-15T11:11:55.810Z,97896.16
2022-10-15T11:14:56.907Z,97891.63
2022-10-15T11:18:00.874Z,97891.81
2022-10-15T11:20:59.630Z,97890.75
2022-10-15T11:23:51.240Z,97887.50
2022-10-15T11:26:59.241Z,97880.56
2022-10-15T11:29:30.179Z,97868.44
2022-10-15T11:32:14.965Z,97868.25
2022-10-15T11:35:07.537Z,97858.69
2022-10-15T11:38:11.332Z,97868.84
2022-10-15T11:41:02.521Z,97867.25
2022-10-15T11:43:57.959Z,97858.81
2022-10-15T11:46:52.638Z,97863.81
2022-10-15T11:49:38.096Z,97857.38
2022-10-15T11:52:21.266Z,97861.31
2022-10-15T11:55:11.726Z,97867.88
2022-10-15T11:57:41.191Z,97855.91
2022-10-15T12:00:27.848Z,97850.88
2022-10-15T12:02:55.771Z,97860.41
2022-10-15T12:05:48.814Z,97861.66
2022-10-15T12:08:16.820Z,97857.22
2022-10-15T12:10:53.513Z,97851.09
2022-10-15T12:13:54.521Z,97848.97
2022-10-15T12:16:30.085Z,97850.47
2022-10-15T12:19:12.061Z,97841.47
2022-10-15T12:21:41.285Z,97848.78
2022-10-15T12:24:47.610Z,97845.84
2022-10-15T12:27:19.896Z,97843.81
2022-10-15T12:29:52.423Z,97838.38
2022-10-15T12:32:23.119Z,97839.63
2022-10-15T12:34:55.512Z,97837.47
2022-10-15T12:37:27.976Z,97839.22
2022-10-15T12:39:58.764Z,97835.22
2022-10-15T12:42:31.084Z,97829.41
2022-10-15T12:45:00.668Z,97818.06
2022-10-15T12:47:56.190Z,97826.28
2022-10-15T12:50:31.145Z,97822.94
2022-10-15T12:53:02.897Z,97825.91
2022-10-15T12:55:35.553Z,97813.81
2022-10-15T12:58:24.602Z,97818.47
2022-10-15T13:00:51.128Z,97813.13
2022-10-15T13:03:39.541Z,97806.88
2022-10-15T13:06:20.978Z,97809.47
2022-10-15T13:09:10.613Z,97806.38
2022-10-15T13:14:31.016Z,97814.63
2022-10-15T13:16:58.205Z,97810.03
2022-10-15T13:19:32.081Z,97810.16
2022-10-15T13:22:01.744Z,97820.38
2022-10-15T13:24:31.244Z,97821.00
2022-10-15T13:27:03.216Z,97820.59
2022-10-15T13:29:29.654Z,97826.75
2022-10-15T13:32:03.369Z,97816.97
2022-10-15T13:34:35.889Z,97826.53
2022-10-15T13:37:14.796Z,97820.13
2022-10-15T13:39:41.777Z,97819.66
2022-10-15T13:42:25.667Z,97814.13
2022-10-15T13:45:18.701Z,97817.44
2022-10-15T13:47:50.356Z,97818.16
2022-10-15T13:50:19.779Z,97813.38
2022-10-15T13:52:55.261Z,97808.41
2022-10-15T13:55:28.412Z,97801.47
2022-10-15T13:58:07.593Z,97797.78
2022-10-15T14:00:39.578Z,97802.13
2022-10-15T14:03:22.769Z,97804.16
2022-10-15T14:05:53.865Z,97810.38
2022-10-15T14:08:25.955Z,97814.28
2022-10-15T14:10:56.964Z,97803.72
2022-10-15T14:13:23.649Z,97807.16
2022-10-15T14:15:53.385Z,97795.34
2022-10-15T14:18:38.766Z,97796.75
2022-10-15T14:21:15.014Z,97819.50
2022-10-15T14:23:43.903Z,97816.59
2022-10-15T14:26:12.007Z,97806.88
2022-10-15T14:28:40.275Z,97824.75
2022-10-15T14:31:09.542Z,97819.78
2022-10-15T14:33:41.929Z,97821.66
2022-10-15T14:36:32.567Z,97813.25
2022-10-15T14:39:31.615Z,97818.59
2022-10-15T14:42:00.682Z,97823.75
2022-10-15T14:44:52.389Z,97803.41
2022-10-15T14:47:35.409Z,97809.97
2022-10-15T14:50:04.168Z,97808.16
2022-10-15T14:52:34.938Z,97811.44
2022-10-15T14:55:34.338Z,97826.44
2022-10-15T14:58:07.870Z,97835.69
2022-10-15T15:00:43.423Z,97839.72
2022-10-15T15:03:40.597Z,97841.84
2022-10-15T15:06:14.706Z,97846.16
2022-10-15T15:08:41.455Z,97839.09
2022-10-15T15:11:13.330Z,97837.47
2022-10-15T15:13:43.009Z,97847.63
2022-10-15T15:16:15.459Z,97846.78
2022-10-15T15:18:43.785Z,97842.47
2022-10-15T15:21:24.236Z,97840.22
2022-10-15T15:23:51.060Z,97834.84
2022-10-15T15:26:17.582Z,97833.19
2022-10-15T15:28:45.230Z,97831.69
2022-10-15T15:31:17.883Z,97837.47
2022-10-15T15:33:51.633Z,97840.75
2022-10-15T15:36:23.751Z,97840.00
2022-10-15T15:38:50.756Z,97852.06
2022-10-15T15:41:22.217Z,97845.84
2022-10-15T15:43:52.440Z,97854.31
2022-10-15T15:46:18.997Z,97858.06
2022-10-15T15:48:51.423Z,97856.22
2022-10-15T15:51:22.334Z,97846.06
2022-10-15T15:53:51.655Z,97851.88
2022-10-15T15:56:18.087Z,97850.16
2022-10-15T15:58:45.926Z,97849.13
2022-10-15T16:01:15.214Z,97846.03
2022-10-15T16:03:45.596Z,97850.81
2022-10-15T16:06:13.241Z,97845.22
2022-10-15T16:08:39.678Z,97843.38
2022-10-15T16:11:07.016Z,97847.09
2022-10-15T16:13:35.944Z,97847.28
2022-10-15T16:16:04.886Z,97843.16
2022-10-15T16:18:33.768Z,97854.31
2022-10-15T16:21:07.963Z,97856.19
2022-10-15T16:23:34.419Z,97856.38
2022-10-15T16:26:00.830Z,97865.88
2022-10-15T16:28:27.291Z,97863.63
2022-10-15T16:30:53.926Z,97871.47
2022-10-15T16:33:20.298Z,97871.47
2022-10-15T16:35:55.481Z,97867.50
2022-10-15T16:38:24.246Z,97873.09
2022-10-15T16:40:56.500Z,97878.25
2022-10-15T16:43:22.862Z,97889.84
2022-10-15T16:45:58.921Z,97886.94
2022-10-15T16:48:26.392Z,97886.34
2022-10-15T16:51:08.568Z,97891.91
2022-10-15T16:53:37.083Z,97887.97
2022-10-15T16:56:14.344Z,97886.56
2022-10-15T16:58:41.205Z,97894.63
2022-10-15T17:01:14.102Z,97891.31
2022-10-15T17:03:41.181Z,97893.59
2022-10-15T17:06:10.864Z,97904.34
2022-10-15T17:09:00.114Z,97901.03
2022-10-15T17:11:36.911Z,97906.41
2022-10-15T17:14:11.836Z,97900.78
2022-10-15T17:16:50.229Z,97892.94
2022-10-15T17:19:19.840Z,97909.94
2022-10-15T17:21:47.278Z,97924.63
2022-10-15T17:24:18.587Z,97925.50
2022-10-15T17:26:46.365Z,97928.56
2022-10-15T17:29:20.592Z,97933.34
2022-10-15T17:31:48.244Z,97924.91
2022-10-15T17:34:14.945Z,97925.88
2022-10-15T17:36:45.503Z,97939.78
2022-10-15T17:39:16.210Z,97945.56
2022-10-15T17:41:43.308Z,97947.25
2022-10-15T17:44:11.937Z,97945.38
2022-10-15T17:46:39.188Z,97945.53
2022-10-15T17:49:06.112Z,97958.63
2022-10-15T17:51:35.820Z,97958.00
2022-10-15T17:54:02.764Z,97956.50
2022-10-15T17:56:31.897Z,97960.00
2022-10-15T17:59:00.112Z,97959.56
2022-10-15T18:01:33.760Z,97956.06
2022-10-15T18:04:15.712Z,97956.06
2022-10-15T18:06:48.101Z,97980.66
2022-10-15T18:09:14.499Z,97971.16
2022-10-15T18:11:43.633Z,97975.75
2022-10-15T18:14:10.054Z,97982.88
2022-10-15T18:16:36.451Z,97986.00
2022-10-15T18:19:02.994Z,97985.41
2022-10-15T18:21:29.436Z,97990.13
2022-10-15T18:23:59.598Z,97999.75
2022-10-15T18:26:26.062Z,97994.75
2022-10-15T18:28:53.844Z,97998.75
2022-10-15T18:31:21.117Z,97989.63
2022-10-15T18:33:55.352Z,97991.00
2022-10-15T18:36:27.438Z,98002.41
2022-10-15T18:38:54.269Z,97998.50
2022-10-15T18:41:23.187Z,98001.38
2022-10-15T18:43:51.639Z,98003.00
2022-10-15T18:46:18.878Z,98004.88
2022-10-15T18:48:45.412Z,98004.44
2022-10-15T18:51:12.196Z,97999.28
2022-10-15T18:53:39.266Z,98011.28
2022-10-15T18:56:07.287Z,98008.59
2022-10-15T18:58:34.037Z,98007.13
2022-10-15T19:01:25.229Z,98011.25
2022-10-15T19:03:52.602Z,98014.56
2022-10-15T19:06:20.444Z,98009.81
2022-10-15T19:08:47.100Z,98008.75
2022-10-15T19:11:13.635Z,98009.72
2022-10-15T19:13:40.361Z,97999.75
2022-10-15T19:16:07.457Z,97998.31
2022-10-15T19:18:37.033Z,98002.66
2022-10-15T19:21:04.859Z,98012.38
2022-10-15T19:23:31.717Z,98011.00
2022-10-15T19:25:58.554Z,98004.44
2022-10-15T19:28:25.856Z,98012.84
2022-10-15T19:31:00.475Z,98007.09
2022-10-15T19:33:28.323Z,98009.91
2022-10-15T19:35:55.856Z,97997.28
2022-10-15T19:38:23.022Z,97995.28
2022-10-15T19:40:52.314Z,98008.06
2022-10-15T19:43:20.797Z,98023.06
2022-10-15T19:45:48.347Z,98019.13
2022-10-15T19:48:17.077Z,98021.50
2022-10-15T19:50:45.948Z,98024.81
2022-10-15T19:53:16.313Z,98022.34
2022-10-15T19:55:43.903Z,98027.25
2022-10-15T19:58:10.324Z,98032.00
2022-10-15T20:00:36.855Z,98044.16
2022-10-15T20:03:03.457Z,98033.41
2022-10-15T20:05:29.901Z,98033.19
2022-10-15T20:07:56.361Z,98044.09
2022-10-15T20:10:25.957Z,98051.31
2022-10-15T20:12:55.778Z,98053.59
2022-10-15T20:15:22.255Z,98049.16
2022-10-15T20:17:48.678Z,98057.97
2022-10-15T20:20:15.331Z,98064.50
2022-10-15T20:22:41.912Z,98080.81
2022-10-15T20:25:08.543Z,98074.00
2022-10-15T20:27:34.969Z,98077.09
2022-10-15T20:30:01.463Z,98074.00
2022-10-15T20:32:34.618Z,98082.66
2022-10-15T20:35:02.568Z,98090.13
2022-10-15T20:37:28.994Z,98090.38
2022-10-15T20:42:27.089Z,98080.66
2022-10-15T20:44:53.760Z,98078.28
2022-10-15T20:47:20.680Z,98098.16
2022-10-15T20:49:50.531Z,98110.16
2022-10-15T20:52:16.998Z,98114.06
2022-10-15T20:54:43.805Z,98111.78
2022-10-15T20:57:10.990Z,98120.19
2022-10-15T20:59:37.452Z,98122.59
2022-10-15T21:02:04.046Z,98121.75
2022-10-15T21:04:30.472Z,98118.38
2022-10-15T21:06:57.289Z,98110.34
2022-10-15T21:09:23.796Z,98113.97
2022-10-15T21:11:50.188Z,98122.03
2022-10-15T21:14:16.707Z,98120.19
2022-10-15T21:16:43.072Z,98114.75
2022-10-15T21:19:09.560Z,98125.75
2022-10-15T21:21:35.982Z,98126.00
2022-10-15T21:24:02.706Z,98128.59
2022-10-15T21:26:29.531Z,98143.38
2022-10-15T21:28:59.994Z,98140.78
2022-10-15T21:31:27.301Z,98150.53
2022-10-15T21:33:55.361Z,98147.56
2022-10-15T21:36:22.698Z,98144.47
2022-10-15T21:38:53.862Z,98147.09
2022-10-15T21:41:21.566Z,98138.59
2022-10-15T21:43:48.083Z,98139.69
2022-10-15T21:46:15.211Z,98135.91
2022-10-15T21:48:42.879Z,98140.91
2022-10-15T21:51:12.913Z,98140.72
2022-10-15T21:53:39.583Z,98147.75
2022-10-15T21:56:07.843Z,98155.59
2022-10-15T21:58:36.320Z,98153.44
2022-10-15T22:01:17.127Z,98147.38
2022-10-15T22:03:46.199Z,98157.97
2022-10-15T22:06:15.679Z,98165.19
2022-10-15T22:08:42.705Z,98172.84
2022-10-15T22:11:10.423Z,98173.16
2022-10-15T22:13:37.007Z,98160.94
2022-10-15T22:16:04.049Z,98172.31
2022-10-15T22:18:32.859Z,98182.84
2022-10-15T22:21:24.330Z,98177.97
2022-10-15T22:23:57.966Z,98178.06
2022-10-15T22:26:27.355Z,98172.69
2022-10-15T22:28:55.513Z,98180.75
2022-10-15T22:31:25.507Z,98183.72
2022-10-15T22:33:54.967Z,98179.91
2022-10-15T22:36:23.924Z,98177.53
2022-10-15T22:39:13.753Z,98178.44
2022-10-15T22:41:42.806Z,98188.34
2022-10-15T22:44:15.628Z,98172.91
2022-10-15T22:46:45.999Z,98182.78
2022-10-15T22:49:13.861Z,98181.13
2022-10-15T22:51:40.490Z,98192.03
2022-10-15T22:54:06.846Z,98188.34
2022-10-15T22:56:33.640Z,98191.59
2022-10-15T22:59:00.253Z,98199.38
2022-10-15T23:01:30.017Z,98199.19
2022-10-15T23:04:01.505Z,98208.59
2022-10-15T23:06:29.016Z,98196.59
2022-10-15T23:08:56.404Z,98194.09
2022-10-15T23:11:25.631Z,98204.44
2022-10-15T23:13:55.107Z,98198.19
2022-10-15T23:16:30.343Z,98197.22
2022-10-15T23:19:02.175Z,98201.41
2022-10-15T23:21:32.824Z,98202.88
2022-10-15T23:24:00.982Z,98209.50
2022-10-15T23:28:58.244Z,98215.63
2022-10-15T23:31:27.504Z,98220.63
2022-10-15T23:33:54.934Z,98218.88
2022-10-15T23:36:23.197Z,98230.41
2022-10-15T23:38:52.789Z,98225.44
2022-10-15T23:41:19.799Z,98222.22
2022-10-15T23:43:46.656Z,98229.34
2022-10-15T23:46:14.363Z,98231.72
2022-10-15T23:48:41.108Z,98221.69
2022-10-15T23:51:28.520Z,98222.53
2022-10-15T23:53:57.323Z,98221.88
2022-10-15T23:56:24.542Z,98205.94
2022-10-15T23:58:53.070Z,98227.91
